Time;durP1;ratioP1;P1;durP2;ratioP2;P2;SDS_P1;SDS_P2;PMS_P1;PMS_P2;Temp;Humidity;BMP_temperature;BMP_pressure;BME280_temperature;BME280_humidity;BME280_pressure;Samples;Min_cycle;Max_cycle;Signal;HPM_P1;HPM_P2
2023/12/20 00:02:01;;;;;;;2.97;2.67;;;;;;;3.78;100.00;97378.53;5036460;28;20910;-82
2023/12/20 00:04:27;;;;;;;3.15;2.70;;;;;;;3.78;100.00;97375.13;5035051;28;20409;-83
2023/12/20 00:06:57;;;;;;;4.88;2.75;;;;;;;3.81;100.00;97372.09;5036438;28;20521;-83
2023/12/20 00:09:23;;;;;;;3.03;2.70;;;;;;;3.80;100.00;97360.03;5037184;28;20436;-83
2023/12/20 00:11:49;;;;;;;3.03;2.72;;;;;;;3.87;100.00;97373.88;5037356;28;20488;-83
2023/12/20 00:14:16;;;;;;;2.40;2.20;;;;;;;3.87;100.00;97368.66;5032811;28;20426;-83
2023/12/20 00:16:42;;;;;;;2.60;2.40;;;;;;;3.85;100.00;97368.03;5037125;28;20488;-83
2023/12/20 00:19:08;;;;;;;2.85;2.60;;;;;;;3.80;100.00;97355.59;5030814;28;20402;-83
2023/12/20 00:21:35;;;;;;;2.85;2.50;;;;;;;3.79;100.00;97367.06;5041261;28;20427;-83
2023/12/20 00:24:01;;;;;;;2.90;2.50;;;;;;;3.77;100.00;97347.34;5034638;28;20486;-83
2023/12/20 00:26:28;;;;;;;2.63;2.38;;;;;;;3.74;100.00;97345.97;5035772;28;20407;-83
2023/12/20 00:28:54;;;;;;;3.22;2.60;;;;;;;3.72;100.00;97352.41;5035073;28;20470;-83
2023/12/20 00:31:21;;;;;;;4.43;2.75;;;;;;;3.69;100.00;97355.41;5037707;28;20418;-82
2023/12/20 00:33:47;;;;;;;3.42;2.97;;;;;;;3.66;100.00;97346.19;5037612;28;20413;-82
2023/12/20 00:36:14;;;;;;;3.17;2.80;;;;;;;3.63;100.00;97348.41;5036831;28;20480;-82
2023/12/20 00:38:40;;;;;;;3.03;2.72;;;;;;;3.62;100.00;97352.03;5031662;28;20463;-83
2023/12/20 00:41:06;;;;;;;2.60;2.40;;;;;;;3.58;100.00;97345.63;5038213;28;20420;-82
2023/12/20 00:43:32;;;;;;;2.95;2.40;;;;;;;3.55;100.00;97356.50;5035442;28;20430;-83
2023/12/20 00:45:59;;;;;;;2.60;2.40;;;;;;;3.51;100.00;97350.88;5036236;28;20459;-83
2023/12/20 00:48:27;;;;;;;2.50;2.30;;;;;;;3.50;100.00;97351.88;5033417;28;20401;-82
2023/12/20 00:50:53;;;;;;;2.78;2.58;;;;;;;3.46;100.00;97346.25;5030963;28;20411;-83
2023/12/20 00:53:19;;;;;;;3.25;2.63;;;;;;;3.44;100.00;97348.28;5040672;28;20510;-83
2023/12/20 00:55:46;;;;;;;3.17;2.70;;;;;;;3.43;100.00;97341.44;5047885;28;20427;-83
2023/12/20 00:58:12;;;;;;;2.75;2.55;;;;;;;3.43;100.00;97338.84;5041803;28;20438;-83
2023/12/20 01:00:38;;;;;;;3.53;2.80;;;;;;;3.42;100.00;97346.88;5030023;28;20427;-83
2023/12/20 01:03:04;;;;;;;2.90;2.50;;;;;;;3.43;100.00;97343.25;5043952;28;20413;-84
2023/12/20 01:05:32;;;;;;;2.85;2.50;;;;;;;3.42;100.00;97342.44;5047277;28;20418;-83
2023/12/20 01:07:58;;;;;;;2.95;2.65;;;;;;;3.43;100.00;97354.53;5041656;28;20466;-83
2023/12/20 01:10:27;;;;;;;2.70;2.50;;;;;;;3.42;100.00;97355.53;5029606;28;20833;-83
2023/12/20 01:12:54;;;;;;;3.95;3.03;;;;;;;3.40;100.00;97343.66;5033409;28;20444;-83
2023/12/20 01:15:20;;;;;;;2.78;2.53;;;;;;;3.43;100.00;97345.88;5030349;28;20739;-83
2023/12/20 01:17:46;;;;;;;3.00;2.70;;;;;;;3.42;100.00;97352.91;5028839;28;20410;-83
2023/12/20 01:20:13;;;;;;;3.77;2.40;;;;;;;3.42;100.00;97349.50;5036527;28;20834;-83
2023/12/20 01:22:42;;;;;;;3.25;2.72;;;;;;;3.42;100.00;97354.72;5038106;28;20751;-83
2023/12/20 01:25:09;;;;;;;2.40;2.20;;;;;;;3.43;100.00;97348.50;5039022;28;20448;-83
2023/12/20 01:27:35;;;;;;;2.60;2.40;;;;;;;3.42;100.00;97352.91;5033956;28;20407;-83
2023/12/20 01:30:01;;;;;;;2.50;2.30;;;;;;;3.42;100.00;97354.72;5038756;28;20492;-83
2023/12/20 01:32:27;;;;;;;2.30;2.10;;;;;;;3.42;100.00;97359.97;5034809;28;20416;-83
2023/12/20 01:34:53;;;;;;;3.22;2.50;;;;;;;3.42;100.00;97358.16;5050149;28;20405;-83
2023/12/20 01:37:20;;;;;;;3.67;2.50;;;;;;;3.42;100.00;97362.56;5047105;28;20399;-83
2023/12/20 01:39:47;;;;;;;3.08;2.78;;;;;;;3.43;100.00;97364.19;5032857;28;20426;-83
2023/12/20 01:42:13;;;;;;;2.90;2.60;;;;;;;3.42;100.00;97358.16;5050794;28;20603;-83
2023/12/20 01:44:39;;;;;;;3.00;2.38;;;;;;;3.43;100.00;97359.75;5057926;28;20412;-84
2023/12/20 01:47:06;;;;;;;4.18;2.80;;;;;;;3.43;100.00;97364.19;5051065;28;20399;-84
2023/12/20 01:49:32;;;;;;;2.92;2.63;;;;;;;3.44;100.00;97365.81;5049942;28;20403;-84
2023/12/20 01:51:58;;;;;;;3.28;2.53;;;;;;;3.45;100.00;97370.03;5058171;28;20518;-83
2023/12/20 01:54:25;;;;;;;4.95;2.75;;;;;;;3.45;100.00;97364.78;5051500;28;20433;-83
2023/12/20 01:56:52;;;;;;;4.43;3.25;;;;;;;3.44;100.00;97352.72;5034538;28;20505;-83
2023/12/20 01:59:20;;;;;;;8.60;3.65;;;;;;;3.44;100.00;97355.34;5039002;28;21549;-83
2023/12/20 02:01:46;;;;;;;3.28;2.78;;;;;;;3.46;100.00;97353.28;5039180;28;20454;-84
2023/12/20 02:04:12;;;;;;;2.60;2.40;;;;;;;3.45;100.00;97357.75;5036997;28;20413;-83
2023/12/20 02:06:42;;;;;;;2.60;2.40;;;;;;;3.45;100.00;97357.75;5037294;28;20471;-84
2023/12/20 02:09:09;;;;;;;3.05;2.20;;;;;;;3.45;100.00;97351.72;5039319;28;20488;-84
2023/12/20 02:11:36;;;;;;;2.22;2.03;;;;;;;3.44;100.00;97356.13;5038041;28;20844;-84
2023/12/20 02:14:03;;;;;;;2.33;2.13;;;;;;;3.45;100.00;97347.28;5037539;28;20469;-84
2023/12/20 02:16:29;;;;;;;2.15;2.05;;;;;;;3.46;100.00;97350.69;5040193;28;20444;-84
2023/12/20 02:18:55;;;;;;;3.00;2.30;;;;;;;3.46;100.00;97350.69;5037248;28;20399;-84
2023/12/20 02:21:31;;;;;;;2.45;2.20;;;;;;;3.45;100.00;97360.38;5043938;28;20419;-84
2023/12/20 02:23:58;;;;;;;2.13;2.03;;;;;;;3.44;100.00;97350.91;5041667;28;20390;-83
2023/12/20 02:26:24;;;;;;;2.28;2.10;;;;;;;3.45;100.00;97352.53;5033753;28;20737;-83
2023/12/20 02:28:50;;;;;;;2.35;2.00;;;;;;;3.44;100.00;97352.72;5031008;28;20883;-84
2023/12/20 02:31:16;;;;;;;2.50;2.30;;;;;;;3.44;100.00;97355.34;5030226;28;20894;-83
2023/12/20 02:33:42;;;;;;;2.50;2.30;;;;;;;3.43;100.00;97357.16;5037693;28;20484;-83
2023/12/20 02:36:08;;;;;;;2.45;2.25;;;;;;;3.45;100.00;97354.31;5037241;28;20543;-83
2023/12/20 02:38:36;;;;;;;2.40;2.20;;;;;;;3.45;100.00;97355.13;5031665;28;20438;-84
2023/12/20 02:41:03;;;;;;;2.38;2.17;;;;;;;3.45;100.00;97357.75;5032672;28;20926;-83
2023/12/20 02:43:29;;;;;;;2.25;2.05;;;;;;;3.44;100.00;97353.53;5042370;28;20407;-83
2023/12/20 02:45:55;;;;;;;2.45;2.20;;;;;;;3.45;100.00;97364.78;5041769;28;20452;-84
2023/12/20 02:48:21;;;;;;;1.95;1.83;;;;;;;3.43;100.00;97364.19;5032799;28;20399;-84
2023/12/20 02:50:48;;;;;;;2.20;2.00;;;;;;;3.40;100.00;97346.28;5039762;28;20398;-83
2023/12/20 02:53:15;;;;;;;2.08;1.98;;;;;;;3.39;100.00;97362.97;5032562;28;20395;-85
2023/12/20 02:55:42;;;;;;;2.50;2.20;;;;;;;3.39;100.00;97355.13;5030445;28;20399;-83
2023/12/20 02:58:08;;;;;;;2.35;2.00;;;;;;;3.43;100.00;97358.97;5039266;28;20472;-83
2023/12/20 03:00:34;;;;;;;2.40;1.90;;;;;;;3.46;100.00;97369.00;5035882;28;20515;-84
2023/12/20 03:03:01;;;;;;;1.80;1.70;;;;;;;3.48;100.00;97359.94;5035072;28;20431;-83
2023/12/20 03:05:27;;;;;;;2.80;1.60;;;;;;;3.50;100.00;97367.59;5032820;28;20481;-83
2023/12/20 03:07:53;;;;;;;1.80;1.70;;;;;;;3.52;100.00;97370.00;5035169;28;20454;-83
2023/12/20 03:10:19;;;;;;;2.17;1.77;;;;;;;3.52;100.00;97362.16;5032630;28;20405;-83
2023/12/20 03:12:47;;;;;;;1.88;1.42;;;;;;;3.52;100.00;97362.97;5038740;28;20489;-83
2023/12/20 03:15:13;;;;;;;2.40;1.40;;;;;;;3.52;100.00;97365.56;5039234;28;20755;-83
2023/12/20 03:17:39;;;;;;;1.50;1.40;;;;;;;3.53;100.00;97369.00;5033441;28;20532;-83
2023/12/20 03:20:07;;;;;;;1.60;1.50;;;;;;;3.55;100.00;97380.03;5037506;28;20417;-83
2023/12/20 03:22:33;;;;;;;1.70;1.60;;;;;;;3.54;100.00;97379.22;5033654;28;20398;-83
2023/12/20 03:24:59;;;;;;;1.80;1.70;;;;;;;3.53;100.00;97379.47;5045430;28;20495;-83
2023/12/20 03:27:25;;;;;;;3.00;1.57;;;;;;;3.55;100.00;97378.22;5037400;28;20452;-83
2023/12/20 03:29:53;;;;;;;1.60;1.50;;;;;;;3.57;100.00;97380.66;5033379;28;20411;-83
2023/12/20 03:32:19;;;;;;;1.50;1.40;;;;;;;3.55;100.00;97378.22;5038633;28;20962;-83
2023/12/20 03:34:45;;;;;;;1.40;1.30;;;;;;;3.55;100.00;97378.22;5033319;28;20437;-83
2023/12/20 03:37:11;;;;;;;1.50;1.40;;;;;;;3.51;100.00;97369.19;5038789;28;20409;-84
2023/12/20 03:39:37;;;;;;;1.45;1.40;;;;;;;3.52;100.00;97370.81;5033879;28;20412;-84
2023/12/20 03:42:04;;;;;;;2.93;1.37;;;;;;;3.52;100.00;97376.03;5032376;28;20478;-84
2023/12/20 03:44:30;;;;;;;1.20;1.20;;;;;;;3.52;100.00;97389.13;5038693;28;20497;-83
2023/12/20 03:46:58;;;;;;;1.40;1.30;;;;;;;3.49;100.00;97379.88;5031613;28;20409;-84
2023/12/20 03:49:24;;;;;;;1.30;1.20;;;;;;;3.49;100.00;97387.72;5035058;28;20457;-84
2023/12/20 03:51:50;;;;;;;1.30;1.30;;;;;;;3.47;100.00;97387.09;5037099;28;20448;-84
2023/12/20 03:54:16;;;;;;;1.25;1.25;;;;;;;3.47;100.00;97389.72;5037786;28;20439;-84
2023/12/20 03:56:42;;;;;;;1.20;1.20;;;;;;;3.47;100.00;97394.16;5030925;28;20438;-84
2023/12/20 03:59:08;;;;;;;1.80;1.40;;;;;;;3.44;100.00;97386.72;5034537;28;20439;-83
2023/12/20 04:01:34;;;;;;;1.40;1.30;;;;;;;3.43;100.00;97385.94;5036256;28;20530;-84
2023/12/20 04:04:02;;;;;;;1.63;1.50;;;;;;;3.42;100.00;97388.75;5027106;28;20404;-84
2023/12/20 04:06:28;;;;;;;1.48;1.30;;;;;;;3.42;100.00;97386.13;5035796;28;20411;-84
2023/12/20 04:08:54;;;;;;;1.40;1.30;;;;;;;3.42;100.00;97391.34;5035441;28;20409;-84
2023/12/20 04:11:21;;;;;;;1.45;1.35;;;;;;;3.40;100.00;97388.13;5033851;28;20411;-84
2023/12/20 04:13:47;;;;;;;2.20;1.40;;;;;;;3.39;100.00;97389.13;5036272;28;20767;-84
2023/12/20 04:16:13;;;;;;;1.60;1.50;;;;;;;3.36;100.00;97390.38;5033149;28;20399;-84
2023/12/20 04:18:39;;;;;;;1.33;1.30;;;;;;;3.35;100.00;97380.91;5036625;28;20391;-84
2023/12/20 04:21:07;;;;;;;1.40;1.30;;;;;;;3.34;100.00;97386.34;5032469;28;20875;-84
2023/12/20 04:23:33;;;;;;;1.20;1.20;;;;;;;3.33;100.00;97393.38;5035167;28;20755;-84
2023/12/20 04:25:59;;;;;;;1.30;1.30;;;;;;;3.32;100.00;97407.47;5031977;28;20406;-84
2023/12/20 04:28:25;;;;;;;1.40;1.30;;;;;;;3.31;100.00;97418.94;5037852;28;20401;-84
2023/12/20 04:30:51;;;;;;;1.60;1.50;;;;;;;3.30;100.00;97413.94;5035975;28;20403;-83
2023/12/20 04:33:17;;;;;;;1.60;1.48;;;;;;;3.29;100.00;97407.09;5045411;28;20475;-84
2023/12/20 04:35:45;;;;;;;1.40;1.40;;;;;;;3.27;100.00;97415.13;5039912;28;20458;-84
2023/12/20 04:38:13;;;;;;;1.50;1.40;;;;;;;3.27;100.00;97406.47;5036051;28;20455;-83
2023/12/20 04:40:40;;;;;;;2.28;1.45;;;;;;;3.26;100.00;97410.91;5030689;28;20913;-83
2023/12/20 04:43:07;;;;;;;1.63;1.52;;;;;;;3.26;100.00;97423.19;5034439;28;20453;-83
2023/12/20 04:45:33;;;;;;;1.27;1.17;;;;;;;3.25;100.00;97421.56;5027742;28;20887;-83
2023/12/20 04:47:59;;;;;;;1.30;1.30;;;;;;;3.25;100.00;97427.59;5031967;28;20397;-82
2023/12/20 04:50:26;;;;;;;1.40;1.30;;;;;;;3.25;100.00;97430.22;5040456;28;20781;-83
2023/12/20 04:52:52;;;;;;;1.50;1.30;;;;;;;3.25;100.00;97417.16;5039131;28;20457;-84
2023/12/20 04:55:19;;;;;;;1.50;1.40;;;;;;;3.27;100.00;97420.38;5034134;28;20455;-83
2023/12/20 04:57:46;;;;;;;1.40;1.30;;;;;;;3.29;100.00;97420.19;5036759;28;20405;-83
2023/12/20 05:00:15;;;;;;;1.38;1.27;;;;;;;3.31;100.00;97425.97;5032161;28;20513;-84
2023/12/20 05:02:41;;;;;;;1.50;1.40;;;;;;;3.30;100.00;97435.66;5050320;28;20408;-83
2023/12/20 05:05:08;;;;;;;2.50;1.60;;;;;;;3.32;100.00;97433.63;5046640;28;20490;-83
2023/12/20 05:07:34;;;;;;;1.38;1.27;;;;;;;3.35;100.00;97437.66;5042524;28;20820;-83
2023/12/20 05:10:00;;;;;;;1.30;1.30;;;;;;;3.35;100.00;97427.19;5039480;28;20429;-82
2023/12/20 05:12:28;;;;;;;1.45;1.35;;;;;;;3.31;100.00;97445.09;5041510;28;20411;-83
2023/12/20 05:14:54;;;;;;;1.30;1.20;;;;;;;3.34;100.00;97436.06;5040360;28;20813;-83
2023/12/20 05:17:20;;;;;;;1.35;1.30;;;;;;;3.33;100.00;97443.09;5037353;28;20407;-83
2023/12/20 05:19:46;;;;;;;1.40;1.30;;;;;;;3.35;100.00;97451.56;5033524;28;20431;-83
2023/12/20 05:22:13;;;;;;;1.40;1.30;;;;;;;3.34;100.00;97454.38;5031192;28;20465;-84
2023/12/20 05:24:39;;;;;;;1.40;1.30;;;;;;;3.36;100.00;97452.34;5035518;28;20399;-83
2023/12/20 05:27:05;;;;;;;1.60;1.50;;;;;;;3.33;100.00;97437.84;5041184;28;20409;-78
2023/12/20 05:29:33;;;;;;;1.30;1.30;;;;;;;3.36;100.00;97452.34;5045778;28;20399;-81
2023/12/20 05:31:59;;;;;;;1.50;1.40;;;;;;;3.36;100.00;97460.22;5034679;28;20411;-81
2023/12/20 05:34:25;;;;;;;1.50;1.40;;;;;;;3.37;100.00;97457.41;5029563;28;20498;-83
2023/12/20 05:36:51;;;;;;;1.33;1.30;;;;;;;3.40;100.00;97464.00;5028343;28;20899;-81
2023/12/20 05:39:17;;;;;;;1.30;1.30;;;;;;;3.41;100.00;97468.25;5038490;28;20723;-83
2023/12/20 05:41:43;;;;;;;1.60;1.50;;;;;;;3.43;100.00;97479.31;5056718;28;20413;-84
2023/12/20 05:44:10;;;;;;;1.60;1.40;;;;;;;3.42;100.00;97469.84;5046881;28;20403;-82
2023/12/20 05:46:37;;;;;;;1.42;1.33;;;;;;;3.41;100.00;97471.66;5035057;28;20461;-80
2023/12/20 05:49:04;;;;;;;3.10;1.40;;;;;;;3.43;100.00;97474.09;5047617;28;20862;-81
2023/12/20 05:51:30;;;;;;;1.50;1.40;;;;;;;3.43;100.00;97481.94;5056492;28;20402;-81
2023/12/20 05:53:56;;;;;;;1.48;1.38;;;;;;;3.43;100.00;97485.34;5042304;28;20405;-82
2023/12/20 05:56:22;;;;;;;1.50;1.40;;;;;;;3.45;100.00;97488.59;5036589;28;20482;-82
2023/12/20 05:58:49;;;;;;;1.75;1.65;;;;;;;3.44;100.00;97488.78;5035505;28;20949;-82
2023/12/20 06:01:17;;;;;;;3.00;1.45;;;;;;;3.45;100.00;97498.25;5035352;28;20899;-83
2023/12/20 06:03:45;;;;;;;1.83;1.58;;;;;;;3.45;100.00;97504.28;5046415;28;20937;-83
2023/12/20 06:06:12;;;;;;;1.70;1.60;;;;;;;3.47;100.00;97509.28;5036232;28;20495;-82
2023/12/20 06:08:39;;;;;;;2.17;1.58;;;;;;;3.46;100.00;97512.91;5036888;28;20498;-82
2023/12/20 06:11:05;;;;;;;2.70;1.90;;;;;;;3.44;100.00;97513.13;5053891;28;20401;-83
2023/12/20 06:13:31;;;;;;;2.53;1.80;;;;;;;3.46;100.00;97505.88;5067210;28;20762;-83
2023/12/20 06:15:57;;;;;;;1.80;1.70;;;;;;;3.50;100.00;97514.13;5060640;28;20421;-83
2023/12/20 06:18:24;;;;;;;1.85;1.75;;;;;;;3.49;100.00;97515.13;5048123;28;20433;-81
2023/12/20 06:20:51;;;;;;;1.80;1.70;;;;;;;3.49;100.00;97510.72;5038747;28;20762;-83
2023/12/20 06:23:18;;;;;;;2.10;1.95;;;;;;;3.52;100.00;97514.75;5071822;28;20405;-85
2023/12/20 06:25:44;;;;;;;1.67;1.57;;;;;;;3.53;100.00;97515.53;5065053;28;20454;-84
2023/12/20 06:28:14;;;;;;;1.70;1.60;;;;;;;3.53;100.00;97520.78;5058079;28;20407;-83
2023/12/20 06:30:40;;;;;;;3.50;1.80;;;;;;;3.53;100.00;97512.94;5065893;28;20488;-84
2023/12/20 06:33:06;;;;;;;1.83;1.73;;;;;;;3.55;100.00;97511.69;5063907;28;20408;-83
2023/12/20 06:35:33;;;;;;;2.00;1.90;;;;;;;3.55;100.00;97503.84;5054726;28;20394;-82
2023/12/20 06:38:01;;;;;;;2.30;1.80;;;;;;;3.56;100.00;97507.28;5056270;28;20451;-83
2023/12/20 06:40:27;;;;;;;2.30;1.90;;;;;;;3.56;100.00;97504.66;5055989;28;20420;-83
2023/12/20 06:42:54;;;;;;;1.90;1.80;;;;;;;3.58;100.00;97513.13;5055703;28;20393;-83
2023/12/20 06:45:20;;;;;;;2.10;1.90;;;;;;;3.58;100.00;97519.16;5054723;28;20428;-83
2023/12/20 06:47:46;;;;;;;2.30;2.08;;;;;;;3.58;100.00;97524.38;5054210;28;20398;-83
2023/12/20 06:50:12;;;;;;;2.17;1.97;;;;;;;3.61;100.00;97526.59;5060262;28;20484;-84
2023/12/20 06:52:38;;;;;;;2.25;2.00;;;;;;;3.63;100.00;97529.00;5065031;28;20409;-84
2023/12/20 06:55:07;;;;;;;2.20;1.85;;;;;;;3.62;100.00;97532.63;5067396;28;20462;-83
2023/12/20 06:57:33;;;;;;;2.10;1.90;;;;;;;3.63;100.00;97535.03;5054497;28;20801;-83
2023/12/20 06:59:59;;;;;;;2.50;2.03;;;;;;;3.62;100.00;97533.44;5054489;28;20398;-83
2023/12/20 07:02:29;;;;;;;3.08;2.10;;;;;;;3.62;100.00;97536.06;5055871;28;20402;-82
2023/12/20 07:04:55;;;;;;;2.87;2.00;;;;;;;3.64;100.00;97547.13;5057474;28;20433;-83
2023/12/20 07:07:23;;;;;;;2.53;1.90;;;;;;;3.66;100.00;97552.97;5054368;28;20767;-82
2023/12/20 07:09:49;;;;;;;2.10;1.77;;;;;;;3.67;100.00;97546.75;5053629;28;20484;-82
2023/12/20 07:12:18;;;;;;;1.70;1.60;;;;;;;3.69;100.00;97549.13;5054759;28;20751;-83
2023/12/20 07:14:44;;;;;;;1.90;1.80;;;;;;;3.69;100.00;97556.97;5055807;28;20455;-82
2023/12/20 07:17:13;;;;;;;1.80;1.70;;;;;;;3.70;100.00;97556.78;5058736;28;20394;-82
2023/12/20 07:19:39;;;;;;;1.85;1.75;;;;;;;3.72;100.00;97565.25;5058215;28;20405;-83
2023/12/20 07:22:07;;;;;;;2.20;2.00;;;;;;;3.70;100.00;97577.72;5036760;28;20425;-82
2023/12/20 07:24:33;;;;;;;2.30;2.10;;;;;;;3.71;100.00;97575.91;5036588;28;20484;-82
2023/12/20 07:27:00;;;;;;;2.63;2.35;;;;;;;3.72;100.00;97594.03;5035411;28;20422;-83
2023/12/20 07:29:27;;;;;;;4.15;3.30;;;;;;;3.70;100.00;97598.66;5032479;28;20749;-82
2023/12/20 07:31:54;;;;;;;4.20;3.20;;;;;;;3.71;100.00;97599.47;5033472;28;20391;-83
2023/12/20 07:34:20;;;;;;;4.68;3.53;;;;;;;3.71;100.00;97597.66;5033207;28;20478;-83
2023/12/20 07:36:46;;;;;;;4.22;3.83;;;;;;;3.71;100.00;97607.34;5033070;28;20763;-82
2023/12/20 07:39:13;;;;;;;6.95;5.68;;;;;;;3.67;100.00;97606.13;5033136;28;20395;-83
2023/12/20 07:41:39;;;;;;;7.57;5.60;;;;;;;3.65;100.00;97595.84;5034571;28;20442;-83
2023/12/20 07:44:06;;;;;;;9.30;7.03;;;;;;;3.60;100.00;97610.56;5032639;28;20396;-84
2023/12/20 07:46:34;;;;;;;10.25;7.30;;;;;;;3.55;100.00;97610.34;5032880;28;20899;-83
2023/12/20 07:49:00;;;;;;;12.98;7.82;;;;;;;3.49;100.00;97614.56;5033498;28;20457;-85
2023/12/20 07:51:26;;;;;;;10.47;7.37;;;;;;;3.47;100.00;97600.88;5033137;28;20408;-84
2023/12/20 07:53:52;;;;;;;11.50;7.97;;;;;;;3.42;100.00;97617.19;5033242;28;20426;-84
2023/12/20 07:56:19;;;;;;;11.82;7.72;;;;;;;3.44;100.00;97602.09;5034026;28;20405;-83
2023/12/20 07:58:48;;;;;;;13.77;7.90;;;;;;;3.43;100.00;97607.53;5034589;28;20819;-84
2023/12/20 08:01:15;;;;;;;11.63;8.05;;;;;;;3.43;100.00;97610.16;5032554;28;20919;-84
2023/12/20 08:03:43;;;;;;;16.17;8.90;;;;;;;3.41;100.00;97612.97;5034167;28;20875;-84
2023/12/20 08:06:09;;;;;;;12.05;8.60;;;;;;;3.39;100.00;97607.09;5032495;28;20489;-84
2023/12/20 08:08:35;;;;;;;14.00;9.50;;;;;;;3.33;100.00;97615.75;5032545;28;20489;-84
2023/12/20 08:11:02;;;;;;;15.18;9.40;;;;;;;3.33;100.00;97612.34;5032660;28;20887;-85
2023/12/20 08:13:28;;;;;;;15.77;9.75;;;;;;;3.31;100.00;97620.38;5033400;28;20430;-84
2023/12/20 08:15:55;;;;;;;13.15;8.00;;;;;;;3.30;100.00;97628.44;5033061;28;20407;-84
2023/12/20 08:18:23;;;;;;;12.77;7.57;;;;;;;3.28;100.00;97627.84;5033083;28;20859;-81
2023/12/20 08:20:52;;;;;;;15.45;9.95;;;;;;;3.28;100.00;97636.50;5031556;28;20418;-84
2023/12/20 08:23:20;;;;;;;16.98;9.65;;;;;;;3.33;100.00;97639.31;5031958;28;20448;-84
2023/12/20 08:25:46;;;;;;;14.75;9.15;;;;;;;3.36;100.00;97638.94;5032790;28;20456;-83
2023/12/20 08:28:12;;;;;;;12.63;8.75;;;;;;;3.36;100.00;97640.72;5032214;28;20809;-84
2023/12/20 08:30:39;;;;;;;16.33;9.63;;;;;;;3.40;100.00;97640.13;5030827;28;20965;-83
2023/12/20 08:33:10;;;;;;;15.48;8.80;;;;;;;3.48;100.00;97639.94;5033331;28;20407;-84
2023/12/20 08:35:36;;;;;;;13.57;8.00;;;;;;;3.48;100.00;97636.50;5032135;28;20444;-84
2023/12/20 08:38:04;;;;;;;11.98;7.70;;;;;;;3.45;100.00;97634.31;5032872;28;20430;-83
2023/12/20 08:40:30;;;;;;;13.65;8.45;;;;;;;3.42;100.00;97647.78;5030927;28;20437;-81
2023/12/20 08:42:56;;;;;;;12.32;8.20;;;;;;;3.39;100.00;97648.16;5030603;28;20426;-82
2023/12/20 08:45:23;;;;;;;14.63;9.32;;;;;;;3.34;100.00;97659.25;5031380;28;20410;-82
2023/12/20 08:47:49;;;;;;;14.30;8.93;;;;;;;3.30;100.00;97662.47;5028847;28;20431;-81
2023/12/20 08:50:15;;;;;;;11.75;7.57;;;;;;;3.20;100.00;97659.41;5031098;28;20410;-81
2023/12/20 08:52:42;;;;;;;13.40;7.80;;;;;;;3.10;100.00;97660.59;5031358;28;20824;-82
2023/12/20 08:55:10;;;;;;;17.42;8.95;;;;;;;3.03;100.00;97664.19;5024564;28;20410;-81
2023/12/20 08:57:36;;;;;;;11.63;7.85;;;;;;;2.99;100.00;97663.78;5023694;28;20414;-81
2023/12/20 09:00:03;;;;;;;12.82;7.82;;;;;;;3.01;100.00;97666.19;5030207;28;20402;-81
2023/12/20 09:02:29;;;;;;;14.35;9.27;;;;;;;3.01;100.00;97666.19;5030779;28;20783;-81
2023/12/20 09:04:55;;;;;;;17.60;10.63;;;;;;;2.98;100.00;97651.72;5031028;28;20938;-81
2023/12/20 09:07:23;;;;;;;20.05;11.90;;;;;;;2.92;100.00;97649.88;5032093;28;20439;-81
2023/12/20 09:09:49;;;;;;;21.88;11.25;;;;;;;2.93;100.00;97651.47;5034521;28;20493;-81
2023/12/20 09:12:19;;;;;;;15.35;8.98;;;;;;;2.96;100.00;97650.28;5032322;28;20403;-81
2023/12/20 09:14:45;;;;;;;10.73;7.90;;;;;;;2.95;100.00;97661.72;5040777;28;20434;-84
2023/12/20 09:17:12;;;;;;;13.88;8.45;;;;;;;2.93;100.00;97661.16;5057344;28;20418;-85
2023/12/20 09:19:38;;;;;;;16.80;9.65;;;;;;;2.93;100.00;97666.38;5051726;28;20433;-85
2023/12/20 09:22:04;;;;;;;16.23;8.80;;;;;;;2.93;100.00;97656.69;5042454;28;20491;-85
2023/12/20 09:24:31;;;;;;;14.38;8.55;;;;;;;2.94;100.00;97658.31;5042320;28;20434;-85
2023/12/20 09:26:57;;;;;;;13.45;7.50;;;;;;;2.98;100.00;97648.28;5044185;28;20398;-85
2023/12/20 09:29:25;;;;;;;14.10;6.80;;;;;;;3.00;100.00;97659.34;5046529;28;20434;-85
2023/12/20 09:31:51;;;;;;;15.43;6.43;;;;;;;2.98;100.00;97666.59;5041929;28;20956;-85
2023/12/20 09:34:17;;;;;;;9.23;5.53;;;;;;;3.02;100.00;97668.59;5041688;28;20733;-85
2023/12/20 09:36:47;;;;;;;14.60;5.55;;;;;;;3.03;100.00;97658.94;5041351;28;20399;-85
2023/12/20 09:39:14;;;;;;;15.55;5.55;;;;;;;3.03;100.00;97657.13;5041525;28;20460;-84
2023/12/20 09:41:45;;;;;;;8.00;4.47;;;;;;;3.11;100.00;97666.63;5043944;28;20434;-85
2023/12/20 09:44:14;;;;;;;10.27;4.55;;;;;;;3.13;100.00;97667.25;5043111;28;20444;-86
2023/12/20 09:46:44;;;;;;;9.15;4.28;;;;;;;3.14;100.00;97681.13;5042646;28;20483;-85
2023/12/20 09:49:11;;;;;;;8.40;3.67;;;;;;;3.17;100.00;97673.69;5043061;28;20438;-85
2023/12/20 09:51:37;;;;;;;6.15;3.33;;;;;;;3.21;100.00;97677.53;5044905;28;20433;-86
2023/12/20 09:54:04;;;;;;;8.10;3.67;;;;;;;3.24;100.00;97689.38;5048905;28;20458;-86
2023/12/20 09:56:30;;;;;;;16.48;4.53;;;;;;;3.25;100.00;97680.53;5045146;28;20405;-85
2023/12/20 09:58:57;;;;;;;8.43;3.42;;;;;;;3.33;100.00;97685.59;5041709;28;20399;-85
2023/12/20 10:01:24;;;;;;;8.70;3.92;;;;;;;3.37;100.00;97685.03;5040791;28;20425;-84
2023/12/20 10:03:55;;;;;;;10.75;4.35;;;;;;;3.49;100.00;97677.38;5037787;28;20913;-83
2023/12/20 10:06:21;;;;;;;5.20;2.85;;;;;;;3.68;100.00;97678.44;5039293;28;20439;-83
2023/12/20 10:08:48;;;;;;;6.90;2.83;;;;;;;3.96;100.00;97684.28;5037503;28;20843;-85
2023/12/20 10:11:14;;;;;;;7.32;3.03;;;;;;;4.32;100.00;97688.28;5048721;28;20405;-86
2023/12/20 10:13:41;;;;;;;6.27;2.60;;;;;;;4.40;100.00;97677.59;5039653;28;20486;-85
2023/12/20 10:16:07;;;;;;;6.38;2.88;;;;;;;4.38;100.00;97693.50;5037092;28;20395;-84
2023/12/20 10:18:34;;;;;;;7.63;2.92;;;;;;;4.23;100.00;97683.25;5043372;28;20404;-86
2023/12/20 10:21:01;;;;;;;9.57;3.00;;;;;;;4.15;100.00;97680.84;5048266;28;20419;-84
2023/12/20 10:23:27;;;;;;;5.13;2.63;;;;;;;4.10;100.00;97674.59;5044114;28;20393;-85
2023/12/20 10:25:58;;;;;;;6.13;2.63;;;;;;;4.01;100.00;97667.94;5050082;28;20407;-82
2023/12/20 10:28:27;;;;;;;10.63;3.35;;;;;;;3.92;100.00;97659.47;5039518;28;20405;-82
2023/12/20 10:30:57;;;;;;;7.70;2.80;;;;;;;3.89;100.00;97662.53;5061026;28;20482;-85
2023/12/20 10:33:25;;;;;;;4.07;2.70;;;;;;;3.93;100.00;97663.72;5044413;28;20469;-86
2023/12/20 10:38:30;;;;;;;5.78;2.72;;;;;;;4.00;100.00;97646.19;5213004;22;20487;-86
2023/12/20 10:43:33;;;;;;;3.88;2.80;;;;;;;4.08;100.00;97656.47;5148778;22;20694;-86
2023/12/20 10:46:00;;;;;;;6.93;2.90;;;;;;;4.07;100.00;97652.22;5032794;28;20427;-85
2023/12/20 10:48:29;;;;;;;5.72;2.80;;;;;;;4.09;100.00;97647.59;5025927;28;20397;-86
2023/12/20 10:50:57;;;;;;;6.15;2.60;;;;;;;4.13;100.00;97656.69;5026380;28;20405;-86
2023/12/20 10:53:24;;;;;;;4.03;2.38;;;;;;;4.16;100.00;97645.78;5027146;28;20415;-86
2023/12/20 10:55:55;;;;;;;3.85;2.40;;;;;;;4.17;100.00;97657.88;5025213;28;20417;-84
2023/12/20 10:58:24;;;;;;;5.35;2.58;;;;;;;4.16;100.00;97645.78;5027179;28;20397;-85
2023/12/20 11:00:58;;;;;;;6.22;2.78;;;;;;;4.14;100.00;97653.03;5036952;28;20465;-85
2023/12/20 11:03:25;;;;;;;4.15;2.60;;;;;;;4.13;100.00;97645.38;5050812;28;20395;-84
2023/12/20 11:05:59;;;;;;;13.90;3.85;;;;;;;4.06;100.00;97645.38;5047879;28;20452;-85
2023/12/20 11:08:32;;;;;;;12.88;3.30;;;;;;;4.10;100.00;97656.25;5049383;28;20399;-86
2023/12/20 11:11:07;;;;;;;5.53;2.53;;;;;;;4.12;100.00;97643.78;5023073;28;20504;-86
2023/12/20 11:13:37;;;;;;;4.07;2.60;;;;;;;4.21;100.00;97632.84;5243227;22;20451;-85
2023/12/20 11:16:04;;;;;;;8.20;3.05;;;;;;;4.30;100.00;97638.69;5095940;28;20394;-87
2023/12/20 11:18:30;;;;;;;5.88;2.60;;;;;;;4.43;100.00;97635.25;5114402;22;20427;-85
2023/12/20 11:21:04;;;;;;;6.65;2.70;;;;;;;4.44;100.00;97629.78;5059124;28;20469;-86
2023/12/20 11:23:33;;;;;;;5.43;3.08;;;;;;;4.45;100.00;97641.88;5051115;28;20412;-87
2023/12/20 11:26:02;;;;;;;8.40;3.10;;;;;;;4.35;100.00;97625.81;5063208;28;20465;-86
2023/12/20 11:28:32;;;;;;;9.65;3.00;;;;;;;4.21;100.00;97627.63;5046069;28;20453;-83
2023/12/20 11:31:00;;;;;;;11.13;3.38;;;;;;;4.17;100.00;97623.00;5041704;28;20744;-82
2023/12/20 11:33:29;;;;;;;11.05;3.10;;;;;;;4.08;100.00;97630.25;5042640;28;20397;-82
2023/12/20 11:35:57;;;;;;;4.63;2.50;;;;;;;4.11;100.00;97631.69;5046217;28;20453;-82